Griffithville, Arkansas
Current Conditions -  °F | °C
As of 9:29 AM on Thursday 18 Dec 2014 (Local Time) from KSRC Reporting Station
Light Rain Light Rain  
Wind Chill: 33°   Ceiling: 500
Heat Index: 37°   Visibility: 1.7mi
Dew Point: 37°   Wind: 6mph
Humidity: 100%   Direction: 60°ENE
Pressure: 30.28"   Gusts: NA
Location:  35.12°N, 91.65°W
Report Text: KSRC 181529Z AUTO 06005KT 1 3/4SM -RA BR OVC005 03/03 A3028 RMK AO2 RAB06 CIG 004V008 P0000 TSNO
Loading
Personal Weather Stations






























Interactive Weather Map New forecast layout! Learn more

10-Day Weather Forecast

Advertisements
Track Severe Weather on mobile